sensor_id;sensor_type;location;lat;lon;timestamp;pressure;altitude;pressure_sealevel;temperature;humidity
72024;BME280;59889;50.700;5.440;2023-04-12T00:01:21;99064.94;;;21.25;33.00
72024;BME280;59889;50.700;5.440;2023-04-12T00:03:46;99053.12;;;21.85;32.57
72024;BME280;59889;50.700;5.440;2023-04-12T00:06:11;99047.75;;;21.50;32.67
72024;BME280;59889;50.700;5.440;2023-04-12T00:08:36;99050.93;;;21.70;32.74
72024;BME280;59889;50.700;5.440;2023-04-12T00:11:02;99042.15;;;22.12;32.19
72024;BME280;59889;50.700;5.440;2023-04-12T00:13:26;99036.64;;;22.40;32.08
72024;BME280;59889;50.700;5.440;2023-04-12T00:15:51;99025.86;;;22.04;32.56
72024;BME280;59889;50.700;5.440;2023-04-12T00:18:16;99018.66;;;21.57;32.89
72024;BME280;59889;50.700;5.440;2023-04-12T00:20:41;99009.19;;;21.54;32.95
72024;BME280;59889;50.700;5.440;2023-04-12T00:23:06;98994.55;;;21.55;32.63
72024;BME280;59889;50.700;5.440;2023-04-12T00:25:31;98988.33;;;21.58;32.89
72024;BME280;59889;50.700;5.440;2023-04-12T00:27:57;98988.64;;;22.01;32.66
72024;BME280;59889;50.700;5.440;2023-04-12T00:30:22;98981.81;;;22.10;32.23
72024;BME280;59889;50.700;5.440;2023-04-12T00:32:47;98970.69;;;21.71;32.73
72024;BME280;59889;50.700;5.440;2023-04-12T00:35:12;98965.29;;;21.71;33.05
72024;BME280;59889;50.700;5.440;2023-04-12T00:37:37;98965.46;;;21.50;33.00
72024;BME280;59889;50.700;5.440;2023-04-12T00:40:02;98958.24;;;21.69;32.78
72024;BME280;59889;50.700;5.440;2023-04-12T00:42:27;98950.78;;;21.82;32.23
72024;BME280;59889;50.700;5.440;2023-04-12T00:44:52;98943.57;;;22.22;32.38
72024;BME280;59889;50.700;5.440;2023-04-12T00:47:17;98941.38;;;21.55;32.87
72024;BME280;59889;50.700;5.440;2023-04-12T00:49:42;98936.73;;;21.99;32.32
72024;BME280;59889;50.700;5.440;2023-04-12T00:52:07;98931.17;;;21.51;32.99
72024;BME280;59889;50.700;5.440;2023-04-12T00:54:32;98928.46;;;22.00;32.39
72024;BME280;59889;50.700;5.440;2023-04-12T00:56:57;98909.17;;;22.03;32.31
72024;BME280;59889;50.700;5.440;2023-04-12T00:59:22;98897.44;;;22.25;32.33
72024;BME280;59889;50.700;5.440;2023-04-12T01:01:47;98896.35;;;21.91;32.13
72024;BME280;59889;50.700;5.440;2023-04-12T01:04:12;98887.67;;;22.18;32.09
72024;BME280;59889;50.700;5.440;2023-04-12T01:06:48;98874.67;;;22.00;32.34
72024;BME280;59889;50.700;5.440;2023-04-12T01:09:09;98866.03;;;21.60;32.86
72024;BME280;59889;50.700;5.440;2023-04-12T01:11:31;98860.89;;;21.59;32.91
72024;BME280;59889;50.700;5.440;2023-04-12T01:13:58;98860.66;;;21.53;33.01
72024;BME280;59889;50.700;5.440;2023-04-12T01:16:23;98850.99;;;21.70;33.05
72024;BME280;59889;50.700;5.440;2023-04-12T01:18:44;98838.24;;;21.16;33.13
72024;BME280;59889;50.700;5.440;2023-04-12T01:21:12;98835.50;;;21.54;32.99
72024;BME280;59889;50.700;5.440;2023-04-12T01:23:42;98825.24;;;21.39;33.16
72024;BME280;59889;50.700;5.440;2023-04-12T01:26:09;98817.50;;;21.46;33.07
72024;BME280;59889;50.700;5.440;2023-04-12T01:28:26;98816.13;;;21.49;33.04
72024;BME280;59889;50.700;5.440;2023-04-12T01:30:49;98812.38;;;21.35;33.24
72024;BME280;59889;50.700;5.440;2023-04-12T01:33:13;98806.13;;;21.48;33.10
72024;BME280;59889;50.700;5.440;2023-04-12T01:35:38;98793.75;;;21.71;33.11
72024;BME280;59889;50.700;5.440;2023-04-12T01:38:03;98790.47;;;21.74;33.07
72024;BME280;59889;50.700;5.440;2023-04-12T01:40:30;98781.44;;;21.62;33.24
72024;BME280;59889;50.700;5.440;2023-04-12T01:43:03;98780.74;;;21.15;33.21
72024;BME280;59889;50.700;5.440;2023-04-12T01:45:18;98762.93;;;21.54;33.05
72024;BME280;59889;50.700;5.440;2023-04-12T01:47:43;98757.50;;;21.79;33.00
72024;BME280;59889;50.700;5.440;2023-04-12T01:50:15;98750.06;;;21.52;33.05
72024;BME280;59889;50.700;5.440;2023-04-12T01:52:37;98750.41;;;21.78;33.03
72024;BME280;59889;50.700;5.440;2023-04-12T01:55:01;98739.04;;;21.81;33.01
72024;BME280;59889;50.700;5.440;2023-04-12T01:57:24;98728.73;;;21.13;33.27
72024;BME280;59889;50.700;5.440;2023-04-12T01:59:49;98719.52;;;21.76;33.07
72024;BME280;59889;50.700;5.440;2023-04-12T02:02:14;98715.11;;;21.51;33.08
72024;BME280;59889;50.700;5.440;2023-04-12T02:04:38;98713.63;;;21.74;33.11
72024;BME280;59889;50.700;5.440;2023-04-12T02:07:03;98704.59;;;21.49;33.10
72024;BME280;59889;50.700;5.440;2023-04-12T02:09:29;98699.81;;;21.43;33.18
72024;BME280;59889;50.700;5.440;2023-04-12T02:11:53;98696.10;;;21.29;33.33
72024;BME280;59889;50.700;5.440;2023-04-12T02:14:18;98684.28;;;21.38;33.24
72024;BME280;59889;50.700;5.440;2023-04-12T02:16:44;98679.22;;;21.45;32.89
72024;BME280;59889;50.700;5.440;2023-04-12T02:19:09;98670.43;;;21.48;33.12
72024;BME280;59889;50.700;5.440;2023-04-12T02:21:38;98667.40;;;21.41;33.21
72024;BME280;59889;50.700;5.440;2023-04-12T02:23:59;98657.18;;;21.60;33.30
72024;BME280;59889;50.700;5.440;2023-04-12T02:26:24;98651.84;;;21.03;33.39
72024;BME280;59889;50.700;5.440;2023-04-12T02:28:49;98646.53;;;21.30;33.34
72024;BME280;59889;50.700;5.440;2023-04-12T02:31:14;98638.89;;;21.46;33.19
72024;BME280;59889;50.700;5.440;2023-04-12T02:33:39;98634.23;;;21.46;33.20
72024;BME280;59889;50.700;5.440;2023-04-12T02:36:08;98625.97;;;21.57;33.04
72024;BME280;59889;50.700;5.440;2023-04-12T02:38:29;98618.19;;;21.39;33.26
72024;BME280;59889;50.700;5.440;2023-04-12T02:40:54;98607.57;;;21.44;33.21
72024;BME280;59889;50.700;5.440;2023-04-12T02:43:19;98601.18;;;21.44;33.21
72024;BME280;59889;50.700;5.440;2023-04-12T02:45:45;98585.53;;;21.22;33.18
72024;BME280;59889;50.700;5.440;2023-04-12T02:48:09;98582.86;;;21.44;33.22
72024;BME280;59889;50.700;5.440;2023-04-12T02:50:35;98575.10;;;21.51;33.14
72024;BME280;59889;50.700;5.440;2023-04-12T02:52:59;98571.63;;;21.63;33.25
72024;BME280;59889;50.700;5.440;2023-04-12T02:55:24;98567.52;;;21.65;33.26
72024;BME280;59889;50.700;5.440;2023-04-12T02:57:49;98563.48;;;21.45;33.23
72024;BME280;59889;50.700;5.440;2023-04-12T03:00:15;98559.37;;;21.45;33.22
72024;BME280;59889;50.700;5.440;2023-04-12T03:02:39;98554.05;;;21.51;33.16
72024;BME280;59889;50.700;5.440;2023-04-12T03:05:05;98545.74;;;21.65;33.26
72024;BME280;59889;50.700;5.440;2023-04-12T03:07:30;98535.19;;;21.61;33.03
72024;BME280;59889;50.700;5.440;2023-04-12T03:09:55;98536.08;;;21.43;33.24
72024;BME280;59889;50.700;5.440;2023-04-12T03:12:19;98527.26;;;21.47;33.19
72024;BME280;59889;50.700;5.440;2023-04-12T03:14:45;98522.03;;;21.49;33.16
72024;BME280;59889;50.700;5.440;2023-04-12T03:17:10;98519.45;;;21.71;33.22
72024;BME280;59889;50.700;5.440;2023-04-12T03:19:35;98515.90;;;21.44;33.25
72024;BME280;59889;50.700;5.440;2023-04-12T03:22:00;98503.79;;;21.57;33.08
72024;BME280;59889;50.700;5.440;2023-04-12T03:24:25;98495.65;;;21.47;33.20
72024;BME280;59889;50.700;5.440;2023-04-12T03:26:50;98489.50;;;21.75;33.17
72024;BME280;59889;50.700;5.440;2023-04-12T03:29:15;98484.95;;;21.76;33.16
72024;BME280;59889;50.700;5.440;2023-04-12T03:31:40;98481.03;;;21.45;33.23
72024;BME280;59889;50.700;5.440;2023-04-12T03:34:05;98483.61;;;21.49;33.18
72024;BME280;59889;50.700;5.440;2023-04-12T03:36:30;98473.92;;;21.73;32.87
72024;BME280;59889;50.700;5.440;2023-04-12T03:38:55;98466.88;;;21.46;33.23
72024;BME280;59889;50.700;5.440;2023-04-12T03:41:21;98459.94;;;21.49;33.18
72024;BME280;59889;50.700;5.440;2023-04-12T03:43:45;98456.41;;;21.65;33.30
72024;BME280;59889;50.700;5.440;2023-04-12T03:46:10;98453.55;;;21.44;33.29
72024;BME280;59889;50.700;5.440;2023-04-12T03:48:35;98446.84;;;21.64;33.30
72024;BME280;59889;50.700;5.440;2023-04-12T03:51:00;98442.62;;;21.67;33.29
72024;BME280;59889;50.700;5.440;2023-04-12T03:53:25;98446.74;;;21.66;33.33
72024;BME280;59889;50.700;5.440;2023-04-12T03:55:50;98441.77;;;21.40;33.28
72024;BME280;59889;50.700;5.440;2023-04-12T03:58:15;98440.83;;;21.59;33.37
72024;BME280;59889;50.700;5.440;2023-04-12T04:00:41;98432.59;;;21.41;33.34
72024;BME280;59889;50.700;5.440;2023-04-12T04:03:05;98431.46;;;21.40;33.30
72024;BME280;59889;50.700;5.440;2023-04-12T04:05:30;98427.60;;;21.64;33.33
72024;BME280;59889;50.700;5.440;2023-04-12T04:07:56;98426.11;;;21.67;33.31
72024;BME280;59889;50.700;5.440;2023-04-12T04:10:21;98422.50;;;21.64;33.32
72024;BME280;59889;50.700;5.440;2023-04-12T04:12:46;98426.84;;;21.60;33.39
72024;BME280;59889;50.700;5.440;2023-04-12T04:15:12;98419.03;;;21.28;33.44
72024;BME280;59889;50.700;5.440;2023-04-12T04:17:36;98421.87;;;21.82;32.81
72024;BME280;59889;50.700;5.440;2023-04-12T04:20:01;98411.07;;;21.47;33.26
72024;BME280;59889;50.700;5.440;2023-04-12T04:22:26;98413.39;;;21.95;32.98
72024;BME280;59889;50.700;5.440;2023-04-12T04:24:51;98404.74;;;22.29;32.50
72024;BME280;59889;50.700;5.440;2023-04-12T04:27:16;98396.97;;;21.38;33.08
72024;BME280;59889;50.700;5.440;2023-04-12T04:29:41;98395.46;;;21.49;32.88
72024;BME280;59889;50.700;5.440;2023-04-12T04:32:06;98393.03;;;21.83;32.74
72024;BME280;59889;50.700;5.440;2023-04-12T04:34:31;98391.43;;;21.38;33.70
72024;BME280;59889;50.700;5.440;2023-04-12T04:36:56;98387.25;;;21.65;33.69
72024;BME280;59889;50.700;5.440;2023-04-12T04:39:21;98384.94;;;21.69;33.58
72024;BME280;59889;50.700;5.440;2023-04-12T04:41:46;98374.35;;;21.39;33.84
72024;BME280;59889;50.700;5.440;2023-04-12T04:44:11;98380.35;;;21.24;33.61
72024;BME280;59889;50.700;5.440;2023-04-12T04:46:36;98375.23;;;21.48;33.41
72024;BME280;59889;50.700;5.440;2023-04-12T04:49:01;98372.80;;;21.45;33.39
72024;BME280;59889;50.700;5.440;2023-04-12T04:51:26;98368.10;;;21.11;33.44
72024;BME280;59889;50.700;5.440;2023-04-12T04:53:51;98366.01;;;21.18;33.62
72024;BME280;59889;50.700;5.440;2023-04-12T04:56:16;98366.54;;;20.85;33.84
72024;BME280;59889;50.700;5.440;2023-04-12T04:58:41;98365.71;;;20.95;33.87
72024;BME280;59889;50.700;5.440;2023-04-12T05:01:06;98370.67;;;21.02;33.71
72024;BME280;59889;50.700;5.440;2023-04-12T05:03:32;98362.31;;;21.37;33.53
72024;BME280;59889;50.700;5.440;2023-04-12T05:05:57;98355.80;;;21.04;33.63
72024;BME280;59889;50.700;5.440;2023-04-12T05:08:22;98353.41;;;21.18;33.71
72024;BME280;59889;50.700;5.440;2023-04-12T05:10:49;98345.88;;;21.38;33.93
72024;BME280;59889;50.700;5.440;2023-04-12T05:13:12;98349.28;;;21.13;34.30
72024;BME280;59889;50.700;5.440;2023-04-12T05:15:39;98349.32;;;21.12;34.79
72024;BME280;59889;50.700;5.440;2023-04-12T05:18:02;98354.37;;;20.88;34.99
72024;BME280;59889;50.700;5.440;2023-04-12T05:20:27;98347.44;;;21.06;35.17
72024;BME280;59889;50.700;5.440;2023-04-12T05:22:52;98347.28;;;21.11;35.35
72024;BME280;59889;50.700;5.440;2023-04-12T05:25:17;98353.97;;;21.27;35.18
72024;BME280;59889;50.700;5.440;2023-04-12T05:27:43;98346.90;;;21.17;35.37
72024;BME280;59889;50.700;5.440;2023-04-12T05:30:08;98344.25;;;21.16;35.35
72024;BME280;59889;50.700;5.440;2023-04-12T05:32:32;98345.56;;;21.29;35.17
72024;BME280;59889;50.700;5.440;2023-04-12T05:34:57;98342.47;;;21.15;35.31
72024;BME280;59889;50.700;5.440;2023-04-12T05:37:22;98341.08;;;21.14;35.32
72024;BME280;59889;50.700;5.440;2023-04-12T05:39:47;98336.15;;;21.21;35.19
72024;BME280;59889;50.700;5.440;2023-04-12T05:42:12;98333.66;;;21.26;35.15
72024;BME280;59889;50.700;5.440;2023-04-12T05:44:38;98329.99;;;21.21;35.17
72024;BME280;59889;50.700;5.440;2023-04-12T05:47:03;98332.54;;;21.14;35.24
72024;BME280;59889;50.700;5.440;2023-04-12T05:49:28;98330.09;;;21.22;35.10
72024;BME280;59889;50.700;5.440;2023-04-12T05:51:53;98319.05;;;21.18;35.17
72024;BME280;59889;50.700;5.440;2023-04-12T05:54:18;98310.78;;;21.18;35.19
72024;BME280;59889;50.700;5.440;2023-04-12T05:56:43;98309.26;;;20.96;35.34
72024;BME280;59889;50.700;5.440;2023-04-12T05:59:08;98305.79;;;21.10;35.19
72024;BME280;59889;50.700;5.440;2023-04-12T06:01:33;98303.55;;;21.05;35.21
72024;BME280;59889;50.700;5.440;2023-04-12T06:03:58;98302.77;;;20.96;34.96
72024;BME280;59889;50.700;5.440;2023-04-12T06:06:23;98300.34;;;21.15;34.99
72024;BME280;59889;50.700;5.440;2023-04-12T06:08:48;98300.04;;;21.09;35.05
72024;BME280;59889;50.700;5.440;2023-04-12T06:11:13;98301.73;;;21.14;34.97
72024;BME280;59889;50.700;5.440;2023-04-12T06:13:38;98298.35;;;21.00;35.11
72024;BME280;59889;50.700;5.440;2023-04-12T06:16:04;98294.44;;;21.20;35.15
72024;BME280;59889;50.700;5.440;2023-04-12T06:18:28;98292.83;;;21.14;34.93
72024;BME280;59889;50.700;5.440;2023-04-12T06:20:53;98289.29;;;21.08;34.93
72024;BME280;59889;50.700;5.440;2023-04-12T06:23:18;98291.32;;;21.14;34.90
72024;BME280;59889;50.700;5.440;2023-04-12T06:25:43;98291.74;;;21.05;35.02
72024;BME280;59889;50.700;5.440;2023-04-12T06:28:08;98296.32;;;20.94;35.10
72024;BME280;59889;50.700;5.440;2023-04-12T06:30:33;98292.29;;;21.29;34.97
72024;BME280;59889;50.700;5.440;2023-04-12T06:32:59;98291.38;;;20.95;35.15
72024;BME280;59889;50.700;5.440;2023-04-12T06:35:23;98283.76;;;21.00;35.06
72024;BME280;59889;50.700;5.440;2023-04-12T06:37:49;98282.79;;;20.85;35.19
72024;BME280;59889;50.700;5.440;2023-04-12T06:40:14;98275.45;;;21.08;35.23
72024;BME280;59889;50.700;5.440;2023-04-12T06:42:39;98273.12;;;21.02;34.98
72024;BME280;59889;50.700;5.440;2023-04-12T06:45:05;98275.30;;;20.87;35.17
72024;BME280;59889;50.700;5.440;2023-04-12T06:47:29;98269.54;;;20.92;35.09
72024;BME280;59889;50.700;5.440;2023-04-12T06:49:54;98266.27;;;21.06;34.89
72024;BME280;59889;50.700;5.440;2023-04-12T06:52:22;98271.89;;;21.01;34.98
72024;BME280;59889;50.700;5.440;2023-04-12T06:54:44;98273.50;;;21.27;35.00
72024;BME280;59889;50.700;5.440;2023-04-12T06:57:09;98273.71;;;20.99;35.08
72024;BME280;59889;50.700;5.440;2023-04-12T06:59:34;98275.16;;;20.88;35.20
72024;BME280;59889;50.700;5.440;2023-04-12T07:01:59;98271.45;;;21.02;35.30
72024;BME280;59889;50.700;5.440;2023-04-12T07:04:24;98267.87;;;20.91;35.14
72024;BME280;59889;50.700;5.440;2023-04-12T07:06:49;98267.25;;;21.06;34.95
72024;BME280;59889;50.700;5.440;2023-04-12T07:09:15;98270.93;;;21.07;34.90
72024;BME280;59889;50.700;5.440;2023-04-12T07:11:39;98275.34;;;20.98;35.04
72024;BME280;59889;50.700;5.440;2023-04-12T07:14:04;98275.97;;;21.01;34.97
72024;BME280;59889;50.700;5.440;2023-04-12T07:16:29;98277.37;;;20.98;35.02
72024;BME280;59889;50.700;5.440;2023-04-12T07:18:54;98274.57;;;20.98;35.04
72024;BME280;59889;50.700;5.440;2023-04-12T07:21:19;98262.07;;;20.97;35.04
72024;BME280;59889;50.700;5.440;2023-04-12T07:23:45;98262.79;;;21.01;34.97
72024;BME280;59889;50.700;5.440;2023-04-12T07:26:09;98269.73;;;21.03;34.91
72024;BME280;59889;50.700;5.440;2023-04-12T07:28:35;98272.41;;;20.96;35.01
72024;BME280;59889;50.700;5.440;2023-04-12T07:31:00;98276.41;;;21.03;34.88
72024;BME280;59889;50.700;5.440;2023-04-12T07:33:25;98277.02;;;20.88;35.04
72024;BME280;59889;50.700;5.440;2023-04-12T07:35:50;98282.74;;;21.09;35.13
72024;BME280;59889;50.700;5.440;2023-04-12T07:38:15;98285.86;;;20.98;35.04
72024;BME280;59889;50.700;5.440;2023-04-12T07:40:40;98291.58;;;20.97;35.09
72024;BME280;59889;50.700;5.440;2023-04-12T07:43:05;98300.70;;;21.00;35.00
72024;BME280;59889;50.700;5.440;2023-04-12T07:45:30;98306.21;;;21.02;34.93
72024;BME280;59889;50.700;5.440;2023-04-12T07:47:55;98297.71;;;20.93;35.02
72024;BME280;59889;50.700;5.440;2023-04-12T07:50:20;98293.64;;;21.18;34.93
72024;BME280;59889;50.700;5.440;2023-04-12T07:52:45;98294.00;;;20.91;34.92
72024;BME280;59889;50.700;5.440;2023-04-12T07:55:10;98307.63;;;20.95;34.86
72024;BME280;59889;50.700;5.440;2023-04-12T07:57:36;98308.64;;;20.96;34.85
72024;BME280;59889;50.700;5.440;2023-04-12T08:00:00;98314.24;;;20.95;34.89
72024;BME280;59889;50.700;5.440;2023-04-12T08:02:25;98315.32;;;20.91;34.93
72024;BME280;59889;50.700;5.440;2023-04-12T08:04:51;98314.02;;;20.89;35.05
72024;BME280;59889;50.700;5.440;2023-04-12T08:07:16;98313.56;;;20.89;35.08
72024;BME280;59889;50.700;5.440;2023-04-12T08:09:41;98313.99;;;20.93;35.02
72024;BME280;59889;50.700;5.440;2023-04-12T08:12:06;98316.09;;;20.97;34.97
72024;BME280;59889;50.700;5.440;2023-04-12T08:14:31;98314.26;;;20.93;35.00
72024;BME280;59889;50.700;5.440;2023-04-12T08:16:56;98319.05;;;21.16;34.99
72024;BME280;59889;50.700;5.440;2023-04-12T08:19:21;98322.83;;;20.97;34.93
72024;BME280;59889;50.700;5.440;2023-04-12T08:21:46;98329.74;;;20.76;34.88
72024;BME280;59889;50.700;5.440;2023-04-12T08:24:11;98334.01;;;20.95;34.93
72024;BME280;59889;50.700;5.440;2023-04-12T08:26:36;98334.85;;;20.94;34.95
72024;BME280;59889;50.700;5.440;2023-04-12T08:29:01;98330.65;;;20.97;34.87
72024;BME280;59889;50.700;5.440;2023-04-12T08:31:27;98330.12;;;21.05;34.75
72024;BME280;59889;50.700;5.440;2023-04-12T08:33:52;98330.22;;;21.49;34.76
72024;BME280;59889;50.700;5.440;2023-04-12T08:36:16;98331.80;;;20.96;34.79
72024;BME280;59889;50.700;5.440;2023-04-12T08:38:41;98331.46;;;20.98;34.77
72024;BME280;59889;50.700;5.440;2023-04-12T08:41:06;98327.18;;;20.90;34.83
72024;BME280;59889;50.700;5.440;2023-04-12T08:43:32;98330.58;;;20.96;34.77
72024;BME280;59889;50.700;5.440;2023-04-12T08:45:58;98324.03;;;20.88;34.89
72024;BME280;59889;50.700;5.440;2023-04-12T08:48:21;98323.36;;;20.90;34.85
72024;BME280;59889;50.700;5.440;2023-04-12T08:50:47;98323.26;;;21.02;34.76
72024;BME280;59889;50.700;5.440;2023-04-12T08:53:11;98321.73;;;21.06;34.71
72024;BME280;59889;50.700;5.440;2023-04-12T08:55:36;98319.12;;;21.15;34.60
72024;BME280;59889;50.700;5.440;2023-04-12T08:58:02;98320.54;;;20.92;34.59
72024;BME280;59889;50.700;5.440;2023-04-12T09:00:27;98327.15;;;21.15;34.63
72024;BME280;59889;50.700;5.440;2023-04-12T09:02:52;98324.62;;;21.11;34.64
72024;BME280;59889;50.700;5.440;2023-04-12T09:05:17;98322.83;;;20.98;34.74
72024;BME280;59889;50.700;5.440;2023-04-12T09:07:42;98325.56;;;21.10;34.61
72024;BME280;59889;50.700;5.440;2023-04-12T09:10:07;98322.87;;;21.12;34.58
72024;BME280;59889;50.700;5.440;2023-04-12T09:12:32;98319.39;;;20.98;34.77
72024;BME280;59889;50.700;5.440;2023-04-12T09:15:07;98317.27;;;20.96;34.77
72024;BME280;59889;50.700;5.440;2023-04-12T09:17:23;98313.81;;;21.01;34.70
72024;BME280;59889;50.700;5.440;2023-04-12T09:19:47;98316.83;;;20.86;34.57
72024;BME280;59889;50.700;5.440;2023-04-12T09:22:12;98322.79;;;21.06;34.59
72024;BME280;59889;50.700;5.440;2023-04-12T09:24:44;98322.42;;;20.99;34.66
72024;BME280;59889;50.700;5.440;2023-04-12T09:27:03;98318.41;;;20.75;34.66
72024;BME280;59889;50.700;5.440;2023-04-12T09:29:27;98314.74;;;20.87;34.79
72024;BME280;59889;50.700;5.440;2023-04-12T09:31:55;98316.61;;;21.06;34.57
72024;BME280;59889;50.700;5.440;2023-04-12T09:34:17;98320.23;;;21.04;34.59
72024;BME280;59889;50.700;5.440;2023-04-12T09:36:42;98323.94;;;21.04;34.59
72024;BME280;59889;50.700;5.440;2023-04-12T09:39:07;98325.10;;;20.79;34.61
72024;BME280;59889;50.700;5.440;2023-04-12T09:41:33;98322.43;;;21.09;34.53
72024;BME280;59889;50.700;5.440;2023-04-12T09:43:57;98318.66;;;20.87;34.52
72024;BME280;59889;50.700;5.440;2023-04-12T09:46:22;98318.99;;;21.11;34.54
72024;BME280;59889;50.700;5.440;2023-04-12T09:48:48;98315.73;;;21.17;34.47
72024;BME280;59889;50.700;5.440;2023-04-12T09:51:13;98311.19;;;21.02;34.63
72024;BME280;59889;50.700;5.440;2023-04-12T09:53:40;98309.64;;;20.86;34.53
72024;BME280;59889;50.700;5.440;2023-04-12T09:56:03;98313.47;;;21.31;34.31
72024;BME280;59889;50.700;5.440;2023-04-12T09:58:30;98316.45;;;20.91;34.50
72024;BME280;59889;50.700;5.440;2023-04-12T10:00:54;98314.08;;;20.98;34.44
72024;BME280;59889;50.700;5.440;2023-04-12T10:03:18;98317.47;;;21.24;34.42
72024;BME280;59889;50.700;5.440;2023-04-12T10:05:43;98323.76;;;21.17;34.50
72024;BME280;59889;50.700;5.440;2023-04-12T10:08:10;98324.02;;;21.25;34.41
72024;BME280;59889;50.700;5.440;2023-04-12T10:10:33;98318.25;;;21.29;34.35
72024;BME280;59889;50.700;5.440;2023-04-12T10:12:59;98313.58;;;21.11;34.57
72024;BME280;59889;50.700;5.440;2023-04-12T10:15:23;98312.64;;;21.08;34.60
72024;BME280;59889;50.700;5.440;2023-04-12T10:17:50;98311.24;;;21.08;34.61
72024;BME280;59889;50.700;5.440;2023-04-12T10:20:14;98311.85;;;21.29;34.39
72024;BME280;59889;50.700;5.440;2023-04-12T10:22:39;98315.52;;;21.07;34.60
72024;BME280;59889;50.700;5.440;2023-04-12T10:25:04;98315.58;;;20.84;34.60
72024;BME280;59889;50.700;5.440;2023-04-12T10:27:29;98313.84;;;21.05;34.68
72024;BME280;59889;50.700;5.440;2023-04-12T10:29:54;98309.89;;;21.14;34.59
72024;BME280;59889;50.700;5.440;2023-04-12T10:32:20;98302.78;;;20.96;34.53
72024;BME280;59889;50.700;5.440;2023-04-12T10:34:45;98301.76;;;20.91;34.60
72024;BME280;59889;50.700;5.440;2023-04-12T10:37:09;98308.70;;;21.13;34.66
72024;BME280;59889;50.700;5.440;2023-04-12T10:39:37;98314.74;;;21.12;34.68
72024;BME280;59889;50.700;5.440;2023-04-12T10:42:14;98318.43;;;21.02;34.77
72024;BME280;59889;50.700;5.440;2023-04-12T10:44:24;98318.84;;;20.74;34.80
72024;BME280;59889;50.700;5.440;2023-04-12T10:46:49;98316.13;;;20.92;34.88
72024;BME280;59889;50.700;5.440;2023-04-12T10:49:15;98318.92;;;21.07;34.68
72024;BME280;59889;50.700;5.440;2023-04-12T10:51:39;98319.31;;;20.85;34.63
72024;BME280;59889;50.700;5.440;2023-04-12T10:56:36;98310.82;;;20.97;34.72
72024;BME280;59889;50.700;5.440;2023-04-12T10:58:56;98310.61;;;21.17;34.48
72024;BME280;59889;50.700;5.440;2023-04-12T11:01:19;98309.49;;;21.06;34.61
72024;BME280;59889;50.700;5.440;2023-04-12T11:06:09;98316.26;;;21.01;34.64
72024;BME280;59889;50.700;5.440;2023-04-12T11:08:38;98318.13;;;21.11;34.52
72024;BME280;59889;50.700;5.440;2023-04-12T11:11:01;98326.34;;;21.04;34.59
72024;BME280;59889;50.700;5.440;2023-04-12T11:13:25;98325.46;;;21.04;34.56
72024;BME280;59889;50.700;5.440;2023-04-12T11:15:53;98326.10;;;21.04;34.54
72024;BME280;59889;50.700;5.440;2023-04-12T11:18:15;98325.84;;;21.05;34.52
72024;BME280;59889;50.700;5.440;2023-04-12T11:20:40;98327.19;;;21.08;34.46
72024;BME280;59889;50.700;5.440;2023-04-12T11:23:07;98327.88;;;21.03;34.52
72024;BME280;59889;50.700;5.440;2023-04-12T11:25:30;98329.24;;;20.82;34.48
72024;BME280;59889;50.700;5.440;2023-04-12T11:27:55;98329.89;;;21.08;34.45
72024;BME280;59889;50.700;5.440;2023-04-12T11:30:20;98327.51;;;21.08;34.45
72024;BME280;59889;50.700;5.440;2023-04-12T11:32:45;98322.48;;;21.07;34.45
72024;BME280;59889;50.700;5.440;2023-04-12T11:35:10;98322.18;;;20.68;34.61
72024;BME280;59889;50.700;5.440;2023-04-12T11:37:37;98324.20;;;20.97;34.53
72024;BME280;59889;50.700;5.440;2023-04-12T11:40:02;98321.51;;;21.04;34.45
72024;BME280;59889;50.700;5.440;2023-04-12T11:42:26;98321.55;;;21.11;34.34
72024;BME280;59889;50.700;5.440;2023-04-12T11:44:51;98317.45;;;21.12;34.33
72024;BME280;59889;50.700;5.440;2023-04-12T11:47:18;98323.35;;;20.92;34.31
72024;BME280;59889;50.700;5.440;2023-04-12T11:49:44;98326.72;;;21.34;34.36
72024;BME280;59889;50.700;5.440;2023-04-12T11:52:06;98325.58;;;21.11;34.36
72024;BME280;59889;50.700;5.440;2023-04-12T11:54:31;98326.04;;;20.89;34.33
72024;BME280;59889;50.700;5.440;2023-04-12T11:56:57;98328.24;;;21.02;34.42
72024;BME280;59889;50.700;5.440;2023-04-12T11:59:21;98337.56;;;21.13;34.27
72024;BME280;59889;50.700;5.440;2023-04-12T12:01:49;98340.01;;;21.12;34.27
72024;BME280;59889;50.700;5.440;2023-04-12T12:04:11;98341.26;;;21.11;34.24
72024;BME280;59889;50.700;5.440;2023-04-12T12:06:37;98346.46;;;21.13;34.19
72024;BME280;59889;50.700;5.440;2023-04-12T12:09:02;98349.65;;;20.85;34.20
72024;BME280;59889;50.700;5.440;2023-04-12T12:11:27;98352.67;;;21.10;34.20
72024;BME280;59889;50.700;5.440;2023-04-12T12:13:53;98351.05;;;21.04;34.25
72024;BME280;59889;50.700;5.440;2023-04-12T12:16:22;98351.00;;;21.01;34.31
72024;BME280;59889;50.700;5.440;2023-04-12T12:18:42;98349.86;;;21.18;34.11
72024;BME280;59889;50.700;5.440;2023-04-12T12:21:08;98348.53;;;21.16;34.12
72024;BME280;59889;50.700;5.440;2023-04-12T12:23:32;98346.94;;;20.99;34.33
72024;BME280;59889;50.700;5.440;2023-04-12T12:25:58;98342.42;;;21.05;34.24
72024;BME280;59889;50.700;5.440;2023-04-12T12:28:23;98342.10;;;20.78;34.29
72024;BME280;59889;50.700;5.440;2023-04-12T12:30:47;98341.79;;;21.08;34.22
72024;BME280;59889;50.700;5.440;2023-04-12T12:33:18;98338.91;;;21.18;34.09
72024;BME280;59889;50.700;5.440;2023-04-12T12:35:38;98333.12;;;21.00;34.30
72024;BME280;59889;50.700;5.440;2023-04-12T12:38:06;98337.08;;;21.14;34.16
72024;BME280;59889;50.700;5.440;2023-04-12T12:40:29;98339.74;;;20.78;34.28
72024;BME280;59889;50.700;5.440;2023-04-12T12:42:54;98333.15;;;20.83;34.24
72024;BME280;59889;50.700;5.440;2023-04-12T12:45:19;98331.77;;;20.94;34.12
72024;BME280;59889;50.700;5.440;2023-04-12T12:47:52;98328.14;;;21.12;34.16
72024;BME280;59889;50.700;5.440;2023-04-12T12:50:08;98320.67;;;21.21;34.05
72024;BME280;59889;50.700;5.440;2023-04-12T12:52:33;98324.77;;;21.12;34.15